New Vienna, Iowa
Current Conditions -  °F | °C
As of 11:55 AM on Friday 24 Oct 2014 (Local Time) from KMXO Reporting Station
Haze Haze  
Wind Chill: 55°   Ceiling: 400
Heat Index: 55°   Visibility: 4mi
Dew Point: 55°   Wind: 12mph
Humidity: 100%   Direction: 150°SSE
Pressure: 30.01"   Gusts: NA
Location:  42.55°N, 91.11°W
Report Text: KMXO 241655Z AUTO 15010KT 4SM BR OVC004 13/13 A3001 RMK AO2
Loading
Personal Weather Stations






























Interactive Weather Map
Tropical Storm Tracking
New forecast layout! Learn more

10-Day Weather Forecast

Advertisements
Track Severe Weather on mobile